createdAt,value
2023-04-15T00:03:05.509Z,4.35
2023-04-15T00:08:08.334Z,4.30
2023-04-15T00:13:10.956Z,3.50
2023-04-15T00:18:14.013Z,3.10
2023-04-15T00:23:17.016Z,3.22
2023-04-15T00:28:19.756Z,2.85
2023-04-15T00:33:22.896Z,3.47
2023-04-15T00:38:25.523Z,3.90
2023-04-15T00:43:28.571Z,4.40
2023-04-15T00:48:31.894Z,4.53
2023-04-15T00:53:34.689Z,4.43
2023-04-15T00:58:37.913Z,4.53
2023-04-15T01:03:40.737Z,4.37
2023-04-15T01:08:44.114Z,4.38
2023-04-15T01:13:47.923Z,3.20
2023-04-15T01:18:50.757Z,5.93
2023-04-15T01:23:57.257Z,4.13
2023-04-15T01:29:00.311Z,3.93
2023-04-15T01:34:03.728Z,4.53
2023-04-15T01:39:24.655Z,6.68
2023-04-15T01:44:27.912Z,6.05
2023-04-15T01:49:32.413Z,4.40
2023-04-15T01:54:37.846Z,4.03
2023-04-15T01:59:42.459Z,3.72
2023-04-15T02:04:46.498Z,4.38
2023-04-15T02:09:50.471Z,3.40
2023-04-15T02:14:54.450Z,3.35
2023-04-15T02:19:59.904Z,3.10
2023-04-15T02:25:04.465Z,3.50
2023-04-15T02:30:09.574Z,3.50
2023-04-15T02:35:13.647Z,3.13
2023-04-15T02:40:17.941Z,2.60
2023-04-15T02:45:26.122Z,3.60
2023-04-15T02:50:30.139Z,3.00
2023-04-15T02:55:34.244Z,3.17
2023-04-15T03:00:38.473Z,4.03
2023-04-15T03:05:42.629Z,2.92
2023-04-15T03:10:46.539Z,3.37
2023-04-15T03:15:51.054Z,3.40
2023-04-15T03:20:55.056Z,3.90
2023-04-15T03:26:03.059Z,2.78
2023-04-15T03:31:08.420Z,3.50
2023-04-15T03:36:12.385Z,3.60
2023-04-15T03:41:16.452Z,4.57
2023-04-15T03:46:20.642Z,5.63
2023-04-15T03:51:24.536Z,6.43
2023-04-15T03:56:28.557Z,3.47
2023-04-15T04:01:32.584Z,4.63
2023-04-15T04:06:36.558Z,7.10
2023-04-15T04:11:40.445Z,6.53
2023-04-15T04:16:45.092Z,5.10
2023-04-15T04:21:48.992Z,6.18
2023-04-15T04:26:53.119Z,5.97
2023-04-15T04:31:57.079Z,6.32
2023-04-15T04:37:01.090Z,5.18
2023-04-15T04:42:04.937Z,6.95
2023-04-15T04:47:08.849Z,6.40
2023-04-15T04:52:13.182Z,5.57
2023-04-15T04:57:17.341Z,4.47
2023-04-15T05:02:21.875Z,6.95
2023-04-15T05:07:26.024Z,6.28
2023-04-15T05:12:29.925Z,5.38
2023-04-15T05:17:35.596Z,4.80
2023-04-15T05:22:39.680Z,4.35
2023-04-15T05:27:43.747Z,5.53
2023-04-15T05:32:47.822Z,5.03
2023-04-15T05:37:51.804Z,5.30
2023-04-15T05:42:55.785Z,4.47
2023-04-15T05:47:59.772Z,3.85
2023-04-15T05:53:03.825Z,5.38
2023-04-15T05:58:08.291Z,3.97
2023-04-15T06:03:12.901Z,5.93
2023-04-15T06:08:17.388Z,5.90
2023-04-15T06:13:21.369Z,4.25
2023-04-15T06:18:26.069Z,3.65
2023-04-15T06:23:30.341Z,7.80
2023-04-15T06:28:34.414Z,4.20
2023-04-15T06:33:38.263Z,5.20
2023-04-15T06:38:44.479Z,4.13
2023-04-15T06:43:48.536Z,5.53
2023-04-15T06:48:52.779Z,4.95
2023-04-15T06:53:57.228Z,4.65
2023-04-15T06:59:01.285Z,5.13
2023-04-15T07:04:05.643Z,4.00
2023-04-15T07:09:10.146Z,4.38
2023-04-15T07:14:14.221Z,5.80
2023-04-15T07:19:18.145Z,4.28
2023-04-15T07:24:23.600Z,4.70
2023-04-15T07:29:27.729Z,3.33
2023-04-15T07:34:32.684Z,4.80
2023-04-15T07:39:37.367Z,5.60
2023-04-15T07:44:41.473Z,3.42
2023-04-15T07:49:45.690Z,3.83
2023-04-15T07:54:49.606Z,5.40
2023-04-15T07:59:53.535Z,4.65
2023-04-15T08:04:58.161Z,3.15
2023-04-15T08:10:02.062Z,3.58
2023-04-15T08:15:08.522Z,4.00
2023-04-15T08:20:13.956Z,3.92
2023-04-15T08:25:17.995Z,4.70
2023-04-15T08:30:22.187Z,4.78
2023-04-15T08:35:26.326Z,3.30
2023-04-15T08:40:45.891Z,3.93
2023-04-15T08:45:52.049Z,4.18
2023-04-15T08:50:56.190Z,3.75
2023-04-15T08:56:05.556Z,3.67
2023-04-15T09:01:09.863Z,4.05
2023-04-15T09:06:15.170Z,6.07
2023-04-15T09:11:20.305Z,5.68
2023-04-15T09:16:24.829Z,4.05
2023-04-15T09:21:29.906Z,6.03
2023-04-15T09:26:36.324Z,4.10
2023-04-15T09:31:41.524Z,4.03
2023-04-15T09:36:50.981Z,4.20
2023-04-15T09:42:08.447Z,3.80
2023-04-15T09:47:28.841Z,3.30
2023-04-15T09:52:33.061Z,5.13
2023-04-15T09:57:38.313Z,3.87
2023-04-15T10:02:43.169Z,4.10
2023-04-15T10:07:47.213Z,4.70
2023-04-15T10:12:54.669Z,7.60
2023-04-15T10:18:01.818Z,7.13
2023-04-15T10:23:08.343Z,5.03
2023-04-15T10:28:16.099Z,4.40
2023-04-15T10:33:24.912Z,4.80
2023-04-15T10:38:37.714Z,4.28
2023-04-15T10:43:58.004Z,4.55
2023-04-15T10:49:17.351Z,5.17
2023-04-15T10:54:27.411Z,3.92
2023-04-15T10:59:38.241Z,3.70
2023-04-15T11:04:59.120Z,5.05
2023-04-15T11:10:03.628Z,3.60
2023-04-15T11:15:35.640Z,3.93
2023-04-15T11:20:41.441Z,5.35
2023-04-15T11:25:46.297Z,5.38
2023-04-15T11:30:50.656Z,5.45
2023-04-15T11:35:55.517Z,5.00
2023-04-15T11:40:59.650Z,3.60
2023-04-15T11:46:04.924Z,4.75
2023-04-15T11:51:09.244Z,4.65
2023-04-15T11:56:17.682Z,3.50
2023-04-15T12:01:20.664Z,4.30
2023-04-15T12:06:24.835Z,5.43
2023-04-15T12:11:31.745Z,6.60
2023-04-15T12:16:49.358Z,4.00
2023-04-15T12:22:00.042Z,4.30
2023-04-15T12:27:13.503Z,4.47
2023-04-15T12:32:19.997Z,3.60
2023-04-15T12:37:23.006Z,5.07
2023-04-15T12:42:25.939Z,4.40
2023-04-15T12:47:28.783Z,3.45
2023-04-15T12:52:31.538Z,26.08
2023-04-15T12:57:34.318Z,5.87
2023-04-15T13:02:37.416Z,4.15
2023-04-15T13:07:40.238Z,6.05
2023-04-15T13:12:43.186Z,5.65
2023-04-15T13:17:46.074Z,3.75
2023-04-15T13:22:48.963Z,3.40
2023-04-15T13:27:51.780Z,3.28
2023-04-15T13:32:54.775Z,3.85
2023-04-15T13:37:57.584Z,4.72
2023-04-15T13:43:00.529Z,4.38
2023-04-15T13:48:03.425Z,3.63
2023-04-15T13:53:06.426Z,3.65
2023-04-15T13:58:09.999Z,3.97
2023-04-15T14:03:13.025Z,3.70
2023-04-15T14:08:16.009Z,4.45
2023-04-15T14:13:19.844Z,3.73
2023-04-15T14:18:22.866Z,4.00
2023-04-15T14:23:25.576Z,4.30
2023-04-15T14:28:28.340Z,4.10
2023-04-15T14:33:31.105Z,4.70
2023-04-15T14:38:38.890Z,4.37
2023-04-15T14:43:41.781Z,4.45
2023-04-15T14:48:44.561Z,4.57
2023-04-15T14:53:47.278Z,3.95
2023-04-15T14:58:50.684Z,6.57
2023-04-15T15:03:53.665Z,5.27
2023-04-15T15:08:56.434Z,4.05
2023-04-15T15:13:59.226Z,6.97
2023-04-15T15:19:02.092Z,5.00
2023-04-15T15:24:05.565Z,5.85
2023-04-15T15:29:08.408Z,7.50
2023-04-15T15:34:11.184Z,7.25
2023-04-15T15:39:14.009Z,7.07
2023-04-15T15:44:16.842Z,5.45
2023-04-15T15:49:20.228Z,5.45
2023-04-15T15:54:22.993Z,6.90
2023-04-15T15:59:26.013Z,5.00
2023-04-15T16:04:29.374Z,6.60
2023-04-15T16:09:32.555Z,5.65
2023-04-15T16:14:35.357Z,6.90
2023-04-15T16:19:38.188Z,4.67
2023-04-15T16:24:41.092Z,4.55
2023-04-15T16:29:43.813Z,5.38
2023-04-15T16:34:46.552Z,8.13
2023-04-15T16:39:49.308Z,6.05
2023-04-15T16:44:52.046Z,5.17
2023-04-15T16:49:54.712Z,4.97
2023-04-15T16:54:57.580Z,5.68
2023-04-15T17:00:00.566Z,6.23
2023-04-15T17:05:03.880Z,7.07
2023-04-15T17:10:07.220Z,8.53
2023-04-15T17:15:10.802Z,7.03
2023-04-15T17:20:18.790Z,7.85
2023-04-15T17:25:22.238Z,9.70
2023-04-15T17:30:27.320Z,9.43
2023-04-15T17:35:50.171Z,11.17
2023-04-15T17:41:13.294Z,11.05
2023-04-15T17:46:36.142Z,9.93
2023-04-15T17:51:58.738Z,10.53
2023-04-15T17:57:21.439Z,15.90
2023-04-15T18:02:44.248Z,11.53
2023-04-15T18:08:07.501Z,10.30
2023-04-15T18:13:30.208Z,8.65
2023-04-15T18:18:53.661Z,11.17
2023-04-15T18:23:56.280Z,10.05
2023-04-15T18:28:59.086Z,14.23
2023-04-15T18:34:05.352Z,11.35
2023-04-15T18:39:08.645Z,9.63
2023-04-15T18:44:11.398Z,12.50
2023-04-15T18:49:14.146Z,12.23
2023-04-15T18:54:16.972Z,9.57
2023-04-15T18:59:29.648Z,11.85
2023-04-15T19:04:33.950Z,13.05
2023-04-15T19:09:37.047Z,11.07
2023-04-15T19:14:39.750Z,18.42
2023-04-15T19:19:43.096Z,11.50
2023-04-15T19:24:46.622Z,16.80
2023-04-15T19:29:49.693Z,19.58
2023-04-15T19:34:52.409Z,22.40
2023-04-15T19:39:56.392Z,23.10
2023-04-15T19:44:59.377Z,23.53
2023-04-15T19:50:02.243Z,22.40
2023-04-15T19:55:05.518Z,22.42
2023-04-15T20:00:09.682Z,21.20
2023-04-15T20:05:12.922Z,20.80
2023-04-15T20:10:15.559Z,19.03
2023-04-15T20:15:18.366Z,22.52
2023-04-15T20:20:22.416Z,17.85
2023-04-15T20:25:25.247Z,19.83
2023-04-15T20:30:29.381Z,16.02
2023-04-15T20:35:32.321Z,16.77
2023-04-15T20:40:35.184Z,18.77
2023-04-15T20:45:38.854Z,19.52
2023-04-15T20:50:41.995Z,18.90
2023-04-15T20:55:44.996Z,20.92
2023-04-15T21:00:48.132Z,18.00
2023-04-15T21:05:51.124Z,20.63
2023-04-15T21:10:53.728Z,19.42
2023-04-15T21:15:56.660Z,18.47
2023-04-15T21:21:01.195Z,16.02
2023-04-15T21:26:04.141Z,18.27
2023-04-15T21:31:07.566Z,25.02
2023-04-15T21:36:10.436Z,19.83
2023-04-15T21:41:13.286Z,22.33
2023-04-15T21:46:22.223Z,20.63
2023-04-15T21:51:26.978Z,23.57
2023-04-15T21:56:29.724Z,23.50
2023-04-15T22:01:32.604Z,20.75
2023-04-15T22:06:35.447Z,23.23
2023-04-15T22:11:39.444Z,21.10
2023-04-15T22:16:42.238Z,20.97
2023-04-15T22:21:44.988Z,18.13
2023-04-15T22:26:47.744Z,20.15
2023-04-15T22:31:51.138Z,23.30
2023-04-15T22:36:54.200Z,20.90
2023-04-15T22:41:57.208Z,21.70
2023-04-15T22:46:59.912Z,24.58
2023-04-15T22:52:02.657Z,19.60
2023-04-15T22:57:05.432Z,19.57
2023-04-15T23:02:08.328Z,20.15
2023-04-15T23:07:11.767Z,16.10
2023-04-15T23:12:14.733Z,20.58
2023-04-15T23:17:17.414Z,20.30
2023-04-15T23:22:20.262Z,17.87
2023-04-15T23:27:23.126Z,19.17
2023-04-15T23:32:27.257Z,17.13
2023-04-15T23:37:31.850Z,21.63
2023-04-15T23:42:34.811Z,19.95
2023-04-15T23:47:38.616Z,20.90
2023-04-15T23:52:41.196Z,16.77
2023-04-15T23:57:43.873Z,19.57
